sensor_id;sensor_type;location;lat;lon;timestamp;P1;durP1;ratioP1;P2;durP2;ratioP2
57605;SDS011;43430;48.204;11.556;2023-07-20T00:02:19;4.53;;;1.65;;
57605;SDS011;43430;48.204;11.556;2023-07-20T00:04:44;4.38;;;2.10;;
57605;SDS011;43430;48.204;11.556;2023-07-20T00:07:10;4.68;;;1.60;;
57605;SDS011;43430;48.204;11.556;2023-07-20T00:09:35;6.13;;;1.85;;
57605;SDS011;43430;48.204;11.556;2023-07-20T00:12:00;5.57;;;1.65;;
57605;SDS011;43430;48.204;11.556;2023-07-20T00:14:26;4.80;;;1.70;;
57605;SDS011;43430;48.204;11.556;2023-07-20T00:16:51;4.45;;;1.52;;
57605;SDS011;43430;48.204;11.556;2023-07-20T00:19:23;4.93;;;1.67;;
57605;SDS011;43430;48.204;11.556;2023-07-20T00:21:49;5.95;;;1.83;;
57605;SDS011;43430;48.204;11.556;2023-07-20T00:24:15;4.43;;;1.42;;
57605;SDS011;43430;48.204;11.556;2023-07-20T00:26:40;2.88;;;1.23;;
57605;SDS011;43430;48.204;11.556;2023-07-20T00:29:06;3.38;;;1.50;;
57605;SDS011;43430;48.204;11.556;2023-07-20T00:31:31;4.65;;;1.30;;
57605;SDS011;43430;48.204;11.556;2023-07-20T00:33:56;2.88;;;1.48;;
57605;SDS011;43430;48.204;11.556;2023-07-20T00:36:22;4.38;;;1.48;;
57605;SDS011;43430;48.204;11.556;2023-07-20T00:38:47;5.25;;;1.38;;
57605;SDS011;43430;48.204;11.556;2023-07-20T00:41:12;4.13;;;1.17;;
57605;SDS011;43430;48.204;11.556;2023-07-20T00:43:38;4.55;;;1.80;;
57605;SDS011;43430;48.204;11.556;2023-07-20T00:46:03;7.80;;;1.75;;
57605;SDS011;43430;48.204;11.556;2023-07-20T00:48:29;3.97;;;1.70;;
57605;SDS011;43430;48.204;11.556;2023-07-20T00:50:56;7.43;;;1.52;;
57605;SDS011;43430;48.204;11.556;2023-07-20T00:53:23;5.68;;;1.20;;
57605;SDS011;43430;48.204;11.556;2023-07-20T00:55:48;4.32;;;1.23;;
57605;SDS011;43430;48.204;11.556;2023-07-20T00:58:14;5.50;;;1.77;;
57605;SDS011;43430;48.204;11.556;2023-07-20T01:00:39;3.70;;;1.20;;
57605;SDS011;43430;48.204;11.556;2023-07-20T01:03:05;2.92;;;1.33;;
57605;SDS011;43430;48.204;11.556;2023-07-20T01:05:33;5.60;;;1.38;;
57605;SDS011;43430;48.204;11.556;2023-07-20T01:08:16;4.15;;;1.50;;
57605;SDS011;43430;48.204;11.556;2023-07-20T01:10:50;5.05;;;1.52;;
57605;SDS011;43430;48.204;11.556;2023-07-20T01:13:24;3.38;;;1.30;;
57605;SDS011;43430;48.204;11.556;2023-07-20T01:15:53;4.75;;;1.30;;
57605;SDS011;43430;48.204;11.556;2023-07-20T01:18:23;2.60;;;1.48;;
57605;SDS011;43430;48.204;11.556;2023-07-20T01:20:48;3.67;;;1.27;;
57605;SDS011;43430;48.204;11.556;2023-07-20T01:23:19;2.30;;;0.88;;
57605;SDS011;43430;48.204;11.556;2023-07-20T01:26:12;3.30;;;1.30;;
57605;SDS011;43430;48.204;11.556;2023-07-20T01:32:11;4.43;;;1.48;;
57605;SDS011;43430;48.204;11.556;2023-07-20T01:34:38;2.70;;;1.10;;
57605;SDS011;43430;48.204;11.556;2023-07-20T01:37:05;3.45;;;1.10;;
57605;SDS011;43430;48.204;11.556;2023-07-20T01:39:31;5.10;;;1.52;;
57605;SDS011;43430;48.204;11.556;2023-07-20T01:41:58;6.18;;;1.38;;
57605;SDS011;43430;48.204;11.556;2023-07-20T01:44:24;2.47;;;1.17;;
57605;SDS011;43430;48.204;11.556;2023-07-20T01:46:49;5.25;;;1.63;;
57605;SDS011;43430;48.204;11.556;2023-07-20T01:49:14;5.80;;;1.35;;
57605;SDS011;43430;48.204;11.556;2023-07-20T01:51:40;3.22;;;1.10;;
57605;SDS011;43430;48.204;11.556;2023-07-20T01:54:05;2.60;;;1.05;;
57605;SDS011;43430;48.204;11.556;2023-07-20T01:56:31;5.88;;;1.13;;
57605;SDS011;43430;48.204;11.556;2023-07-20T01:58:56;3.50;;;1.02;;
57605;SDS011;43430;48.204;11.556;2023-07-20T02:01:22;2.58;;;1.10;;
57605;SDS011;43430;48.204;11.556;2023-07-20T02:03:47;4.07;;;1.13;;
57605;SDS011;43430;48.204;11.556;2023-07-20T02:06:12;3.33;;;1.20;;
57605;SDS011;43430;48.204;11.556;2023-07-20T02:08:38;2.17;;;0.80;;
57605;SDS011;43430;48.204;11.556;2023-07-20T02:11:03;3.85;;;1.15;;
57605;SDS011;43430;48.204;11.556;2023-07-20T02:13:29;4.57;;;1.20;;
57605;SDS011;43430;48.204;11.556;2023-07-20T02:15:55;3.22;;;1.02;;
57605;SDS011;43430;48.204;11.556;2023-07-20T02:18:20;5.82;;;1.00;;
57605;SDS011;43430;48.204;11.556;2023-07-20T02:20:46;3.15;;;1.05;;
57605;SDS011;43430;48.204;11.556;2023-07-20T02:23:11;3.20;;;1.17;;
57605;SDS011;43430;48.204;11.556;2023-07-20T02:25:36;2.70;;;0.88;;
57605;SDS011;43430;48.204;11.556;2023-07-20T02:28:03;4.15;;;0.98;;
57605;SDS011;43430;48.204;11.556;2023-07-20T02:30:29;5.28;;;1.40;;
57605;SDS011;43430;48.204;11.556;2023-07-20T02:32:54;7.35;;;1.35;;
57605;SDS011;43430;48.204;11.556;2023-07-20T02:35:22;4.32;;;1.25;;
57605;SDS011;43430;48.204;11.556;2023-07-20T02:37:47;2.78;;;0.93;;
57605;SDS011;43430;48.204;11.556;2023-07-20T02:40:13;4.82;;;1.23;;
57605;SDS011;43430;48.204;11.556;2023-07-20T02:42:38;1.80;;;0.95;;
57605;SDS011;43430;48.204;11.556;2023-07-20T02:45:04;3.22;;;1.30;;
57605;SDS011;43430;48.204;11.556;2023-07-20T02:47:30;6.78;;;1.40;;
57605;SDS011;43430;48.204;11.556;2023-07-20T02:49:56;5.50;;;1.23;;
57605;SDS011;43430;48.204;11.556;2023-07-20T02:52:22;4.50;;;1.00;;
57605;SDS011;43430;48.204;11.556;2023-07-20T02:54:48;4.30;;;1.52;;
57605;SDS011;43430;48.204;11.556;2023-07-20T02:57:13;6.03;;;1.45;;
57605;SDS011;43430;48.204;11.556;2023-07-20T02:59:39;5.13;;;1.10;;
57605;SDS011;43430;48.204;11.556;2023-07-20T03:02:04;3.45;;;1.10;;
57605;SDS011;43430;48.204;11.556;2023-07-20T03:04:29;2.83;;;1.33;;
57605;SDS011;43430;48.204;11.556;2023-07-20T03:06:55;5.47;;;1.17;;
57605;SDS011;43430;48.204;11.556;2023-07-20T03:09:20;3.25;;;0.90;;
57605;SDS011;43430;48.204;11.556;2023-07-20T03:11:46;3.78;;;0.90;;
57605;SDS011;43430;48.204;11.556;2023-07-20T03:14:11;3.10;;;0.77;;
57605;SDS011;43430;48.204;11.556;2023-07-20T03:16:37;2.92;;;0.93;;
57605;SDS011;43430;48.204;11.556;2023-07-20T03:19:03;60.60;;;50.85;;
57605;SDS011;43430;48.204;11.556;2023-07-20T03:21:28;2.20;;;0.60;;
57605;SDS011;43430;48.204;11.556;2023-07-20T03:23:54;2.88;;;1.08;;
57605;SDS011;43430;48.204;11.556;2023-07-20T03:26:19;5.97;;;1.50;;
57605;SDS011;43430;48.204;11.556;2023-07-20T03:28:45;895.65;;;385.17;;
57605;SDS011;43430;48.204;11.556;2023-07-20T03:31:10;1999.90;;;999.90;;
57605;SDS011;43430;48.204;11.556;2023-07-20T03:33:35;3.00;;;1.10;;
57605;SDS011;43430;48.204;11.556;2023-07-20T03:36:01;4.22;;;1.00;;
57605;SDS011;43430;48.204;11.556;2023-07-20T03:38:26;2.25;;;1.15;;
57605;SDS011;43430;48.204;11.556;2023-07-20T03:41:01;3.03;;;1.10;;
57605;SDS011;43430;48.204;11.556;2023-07-20T03:43:27;3.22;;;1.08;;
57605;SDS011;43430;48.204;11.556;2023-07-20T03:45:53;4.57;;;1.08;;
57605;SDS011;43430;48.204;11.556;2023-07-20T03:48:20;2.50;;;0.80;;
57605;SDS011;43430;48.204;11.556;2023-07-20T03:50:47;2.50;;;1.33;;
57605;SDS011;43430;48.204;11.556;2023-07-20T03:53:14;7.22;;;1.13;;
57605;SDS011;43430;48.204;11.556;2023-07-20T03:55:50;3.00;;;1.13;;
57605;SDS011;43430;48.204;11.556;2023-07-20T03:58:16;6.45;;;1.10;;
57605;SDS011;43430;48.204;11.556;2023-07-20T04:00:46;2.53;;;1.15;;
57605;SDS011;43430;48.204;11.556;2023-07-20T04:03:12;3.67;;;1.02;;
57605;SDS011;43430;48.204;11.556;2023-07-20T04:05:38;5.03;;;1.10;;
57605;SDS011;43430;48.204;11.556;2023-07-20T04:08:03;2.75;;;1.20;;
57605;SDS011;43430;48.204;11.556;2023-07-20T04:10:29;3.17;;;1.20;;
57605;SDS011;43430;48.204;11.556;2023-07-20T04:12:54;3.63;;;1.25;;
57605;SDS011;43430;48.204;11.556;2023-07-20T04:15:20;3.00;;;1.20;;
57605;SDS011;43430;48.204;11.556;2023-07-20T04:17:45;1.80;;;1.02;;
57605;SDS011;43430;48.204;11.556;2023-07-20T04:20:11;2.08;;;0.98;;
57605;SDS011;43430;48.204;11.556;2023-07-20T04:22:36;5.18;;;1.20;;
57605;SDS011;43430;48.204;11.556;2023-07-20T04:25:02;3.00;;;1.42;;
57605;SDS011;43430;48.204;11.556;2023-07-20T04:27:28;2.65;;;0.93;;
57605;SDS011;43430;48.204;11.556;2023-07-20T04:29:53;4.07;;;1.33;;
57605;SDS011;43430;48.204;11.556;2023-07-20T04:32:19;4.07;;;1.00;;
57605;SDS011;43430;48.204;11.556;2023-07-20T04:34:44;2.50;;;0.95;;
57605;SDS011;43430;48.204;11.556;2023-07-20T04:37:10;3.17;;;0.98;;
57605;SDS011;43430;48.204;11.556;2023-07-20T04:39:35;2.60;;;1.10;;
57605;SDS011;43430;48.204;11.556;2023-07-20T04:42:00;2.83;;;1.00;;
57605;SDS011;43430;48.204;11.556;2023-07-20T04:44:26;3.50;;;1.10;;
57605;SDS011;43430;48.204;11.556;2023-07-20T04:46:51;3.97;;;1.40;;
57605;SDS011;43430;48.204;11.556;2023-07-20T04:49:16;2.88;;;0.90;;
57605;SDS011;43430;48.204;11.556;2023-07-20T04:51:42;39.15;;;12.15;;
57605;SDS011;43430;48.204;11.556;2023-07-20T04:54:07;226.70;;;44.63;;
57605;SDS011;43430;48.204;11.556;2023-07-20T04:56:32;1999.90;;;999.90;;
57605;SDS011;43430;48.204;11.556;2023-07-20T04:58:58;75.05;;;72.50;;
57605;SDS011;43430;48.204;11.556;2023-07-20T05:01:23;1999.90;;;999.90;;
57605;SDS011;43430;48.204;11.556;2023-07-20T05:03:49;1999.90;;;999.90;;
57605;SDS011;43430;48.204;11.556;2023-07-20T05:06:15;92.30;;;11.73;;
57605;SDS011;43430;48.204;11.556;2023-07-20T05:08:40;39.00;;;5.70;;
57605;SDS011;43430;48.204;11.556;2023-07-20T05:11:06;2.92;;;1.60;;
57605;SDS011;43430;48.204;11.556;2023-07-20T05:13:32;5.60;;;1.70;;
57605;SDS011;43430;48.204;11.556;2023-07-20T05:15:58;3.22;;;1.98;;
57605;SDS011;43430;48.204;11.556;2023-07-20T05:18:23;1999.90;;;999.90;;
57605;SDS011;43430;48.204;11.556;2023-07-20T05:20:48;1999.90;;;999.90;;
57605;SDS011;43430;48.204;11.556;2023-07-20T05:23:17;1999.90;;;999.90;;
57605;SDS011;43430;48.204;11.556;2023-07-20T05:25:43;1999.90;;;999.90;;
57605;SDS011;43430;48.204;11.556;2023-07-20T05:28:08;1999.90;;;999.90;;
57605;SDS011;43430;48.204;11.556;2023-07-20T05:30:34;1999.90;;;999.90;;
57605;SDS011;43430;48.204;11.556;2023-07-20T05:32:59;1999.90;;;999.90;;
57605;SDS011;43430;48.204;11.556;2023-07-20T05:35:25;106.90;;;16.52;;
57605;SDS011;43430;48.204;11.556;2023-07-20T05:37:51;1999.90;;;999.90;;
57605;SDS011;43430;48.204;11.556;2023-07-20T05:40:17;1999.90;;;999.90;;
57605;SDS011;43430;48.204;11.556;2023-07-20T05:42:46;1999.90;;;999.90;;
57605;SDS011;43430;48.204;11.556;2023-07-20T05:45:13;1999.90;;;999.90;;
57605;SDS011;43430;48.204;11.556;2023-07-20T05:47:39;1999.90;;;999.90;;
57605;SDS011;43430;48.204;11.556;2023-07-20T05:50:06;1999.90;;;999.90;;
57605;SDS011;43430;48.204;11.556;2023-07-20T05:52:32;1999.90;;;999.90;;
57605;SDS011;43430;48.204;11.556;2023-07-20T05:54:57;1999.90;;;999.90;;
57605;SDS011;43430;48.204;11.556;2023-07-20T05:57:23;1999.90;;;999.90;;
57605;SDS011;43430;48.204;11.556;2023-07-20T05:59:48;1999.90;;;999.90;;
57605;SDS011;43430;48.204;11.556;2023-07-20T06:02:14;1999.90;;;999.90;;
57605;SDS011;43430;48.204;11.556;2023-07-20T06:04:40;1999.90;;;999.90;;
57605;SDS011;43430;48.204;11.556;2023-07-20T06:07:05;1999.90;;;999.90;;
57605;SDS011;43430;48.204;11.556;2023-07-20T06:09:32;1999.90;;;999.90;;
57605;SDS011;43430;48.204;11.556;2023-07-20T06:11:58;1999.90;;;999.90;;
57605;SDS011;43430;48.204;11.556;2023-07-20T06:14:23;155.05;;;38.22;;
57605;SDS011;43430;48.204;11.556;2023-07-20T06:16:49;1999.90;;;999.90;;
57605;SDS011;43430;48.204;11.556;2023-07-20T06:19:14;1999.90;;;999.90;;
57605;SDS011;43430;48.204;11.556;2023-07-20T06:21:40;1999.90;;;999.90;;
57605;SDS011;43430;48.204;11.556;2023-07-20T06:24:05;1999.90;;;999.90;;
57605;SDS011;43430;48.204;11.556;2023-07-20T06:26:31;1999.90;;;999.90;;
57605;SDS011;43430;48.204;11.556;2023-07-20T06:29:03;1999.90;;;999.90;;
57605;SDS011;43430;48.204;11.556;2023-07-20T06:31:28;1999.90;;;999.90;;
57605;SDS011;43430;48.204;11.556;2023-07-20T06:33:54;1999.90;;;999.90;;
57605;SDS011;43430;48.204;11.556;2023-07-20T06:36:22;1999.90;;;999.90;;
57605;SDS011;43430;48.204;11.556;2023-07-20T06:38:47;1999.90;;;999.90;;
57605;SDS011;43430;48.204;11.556;2023-07-20T06:41:12;1999.90;;;999.90;;
57605;SDS011;43430;48.204;11.556;2023-07-20T06:43:38;1999.90;;;999.90;;
57605;SDS011;43430;48.204;11.556;2023-07-20T06:46:03;1999.90;;;999.90;;
57605;SDS011;43430;48.204;11.556;2023-07-20T06:48:28;1999.90;;;999.90;;
57605;SDS011;43430;48.204;11.556;2023-07-20T06:50:54;1999.90;;;999.90;;
57605;SDS011;43430;48.204;11.556;2023-07-20T06:53:20;1999.90;;;999.90;;
57605;SDS011;43430;48.204;11.556;2023-07-20T06:55:45;1999.90;;;999.90;;
57605;SDS011;43430;48.204;11.556;2023-07-20T06:58:11;1999.90;;;999.90;;
57605;SDS011;43430;48.204;11.556;2023-07-20T07:00:37;1999.90;;;999.90;;
57605;SDS011;43430;48.204;11.556;2023-07-20T07:03:02;1999.90;;;999.90;;
57605;SDS011;43430;48.204;11.556;2023-07-20T07:05:28;1999.90;;;999.90;;
57605;SDS011;43430;48.204;11.556;2023-07-20T07:07:53;1999.90;;;999.90;;
57605;SDS011;43430;48.204;11.556;2023-07-20T07:10:18;1999.90;;;999.90;;
57605;SDS011;43430;48.204;11.556;2023-07-20T07:12:44;1999.90;;;999.90;;
57605;SDS011;43430;48.204;11.556;2023-07-20T07:15:09;1999.90;;;999.90;;
57605;SDS011;43430;48.204;11.556;2023-07-20T07:17:35;1034.75;;;511.70;;
57605;SDS011;43430;48.204;11.556;2023-07-20T07:20:01;533.40;;;264.33;;
57605;SDS011;43430;48.204;11.556;2023-07-20T07:22:27;14.27;;;13.68;;
57605;SDS011;43430;48.204;11.556;2023-07-20T07:24:52;154.20;;;148.60;;
57605;SDS011;43430;48.204;11.556;2023-07-20T07:27:19;1999.90;;;999.90;;
57605;SDS011;43430;48.204;11.556;2023-07-20T07:29:44;1999.90;;;999.90;;
57605;SDS011;43430;48.204;11.556;2023-07-20T07:32:10;1999.90;;;999.90;;
57605;SDS011;43430;48.204;11.556;2023-07-20T07:34:36;1999.90;;;999.90;;
57605;SDS011;43430;48.204;11.556;2023-07-20T07:37:02;1999.90;;;999.90;;
57605;SDS011;43430;48.204;11.556;2023-07-20T07:39:27;1999.90;;;999.90;;
57605;SDS011;43430;48.204;11.556;2023-07-20T07:41:55;1999.90;;;999.90;;
57605;SDS011;43430;48.204;11.556;2023-07-20T07:44:21;95.55;;;85.30;;
57605;SDS011;43430;48.204;11.556;2023-07-20T07:46:46;11.60;;;11.10;;
57605;SDS011;43430;48.204;11.556;2023-07-20T07:49:12;29.92;;;28.17;;
57605;SDS011;43430;48.204;11.556;2023-07-20T07:51:37;16.15;;;15.43;;
57605;SDS011;43430;48.204;11.556;2023-07-20T07:54:03;10.73;;;10.23;;
57605;SDS011;43430;48.204;11.556;2023-07-20T07:56:29;10.98;;;10.38;;
57605;SDS011;43430;48.204;11.556;2023-07-20T07:58:54;11.95;;;11.05;;
57605;SDS011;43430;48.204;11.556;2023-07-20T08:01:20;10.98;;;10.27;;
57605;SDS011;43430;48.204;11.556;2023-07-20T08:03:45;11.18;;;10.27;;
57605;SDS011;43430;48.204;11.556;2023-07-20T08:06:13;10.15;;;9.73;;
57605;SDS011;43430;48.204;11.556;2023-07-20T08:08:39;10.73;;;10.32;;
57605;SDS011;43430;48.204;11.556;2023-07-20T08:11:04;8.98;;;8.55;;
57605;SDS011;43430;48.204;11.556;2023-07-20T08:13:30;11.73;;;11.13;;
57605;SDS011;43430;48.204;11.556;2023-07-20T08:15:56;9.13;;;8.73;;
57605;SDS011;43430;48.204;11.556;2023-07-20T08:18:21;11.13;;;10.55;;
57605;SDS011;43430;48.204;11.556;2023-07-20T08:20:47;416.30;;;237.05;;
57605;SDS011;43430;48.204;11.556;2023-07-20T08:23:14;19.52;;;18.55;;
57605;SDS011;43430;48.204;11.556;2023-07-20T08:25:39;28.73;;;27.52;;
57605;SDS011;43430;48.204;11.556;2023-07-20T08:28:08;264.40;;;106.15;;
57605;SDS011;43430;48.204;11.556;2023-07-20T08:33:07;9.55;;;9.15;;
57605;SDS011;43430;48.204;11.556;2023-07-20T08:35:33;13.82;;;7.75;;
57605;SDS011;43430;48.204;11.556;2023-07-20T08:37:58;489.10;;;222.25;;
57605;SDS011;43430;48.204;11.556;2023-07-20T08:40:24;47.95;;;21.52;;
57605;SDS011;43430;48.204;11.556;2023-07-20T08:42:49;1999.90;;;999.90;;
57605;SDS011;43430;48.204;11.556;2023-07-20T08:45:15;11.10;;;10.52;;
57605;SDS011;43430;48.204;11.556;2023-07-20T08:47:42;9.05;;;8.55;;
57605;SDS011;43430;48.204;11.556;2023-07-20T08:50:10;37.47;;;10.43;;
57605;SDS011;43430;48.204;11.556;2023-07-20T08:52:37;8.63;;;8.13;;
57605;SDS011;43430;48.204;11.556;2023-07-20T08:55:03;440.25;;;132.93;;
57605;SDS011;43430;48.204;11.556;2023-07-20T08:57:29;380.80;;;49.28;;
57605;SDS011;43430;48.204;11.556;2023-07-20T08:59:59;1999.90;;;999.90;;
57605;SDS011;43430;48.204;11.556;2023-07-20T09:02:29;1999.90;;;999.90;;
57605;SDS011;43430;48.204;11.556;2023-07-20T09:05:00;1999.90;;;999.90;;
57605;SDS011;43430;48.204;11.556;2023-07-20T09:07:25;1999.90;;;999.90;;
57605;SDS011;43430;48.204;11.556;2023-07-20T09:09:51;1999.90;;;999.90;;
57605;SDS011;43430;48.204;11.556;2023-07-20T09:12:16;1999.90;;;999.90;;
57605;SDS011;43430;48.204;11.556;2023-07-20T09:14:45;1999.90;;;999.90;;
57605;SDS011;43430;48.204;11.556;2023-07-20T09:17:14;1999.90;;;999.90;;
57605;SDS011;43430;48.204;11.556;2023-07-20T09:19:46;1999.90;;;999.90;;
57605;SDS011;43430;48.204;11.556;2023-07-20T09:22:12;1999.90;;;999.90;;
57605;SDS011;43430;48.204;11.556;2023-07-20T09:24:38;1999.90;;;999.90;;
57605;SDS011;43430;48.204;11.556;2023-07-20T09:27:04;1999.90;;;999.90;;
57605;SDS011;43430;48.204;11.556;2023-07-20T09:29:29;1999.90;;;999.90;;
57605;SDS011;43430;48.204;11.556;2023-07-20T09:31:59;1999.90;;;999.90;;
57605;SDS011;43430;48.204;11.556;2023-07-20T09:34:25;1999.90;;;999.90;;
57605;SDS011;43430;48.204;11.556;2023-07-20T09:36:51;1999.90;;;999.90;;
57605;SDS011;43430;48.204;11.556;2023-07-20T09:39:17;1999.90;;;999.90;;
57605;SDS011;43430;48.204;11.556;2023-07-20T09:41:42;1999.90;;;999.90;;
57605;SDS011;43430;48.204;11.556;2023-07-20T09:44:08;1999.90;;;999.90;;
57605;SDS011;43430;48.204;11.556;2023-07-20T09:46:48;1999.90;;;999.90;;
57605;SDS011;43430;48.204;11.556;2023-07-20T09:49:14;1999.90;;;999.90;;
57605;SDS011;43430;48.204;11.556;2023-07-20T09:51:40;1999.90;;;999.90;;
57605;SDS011;43430;48.204;11.556;2023-07-20T09:54:07;1999.90;;;999.90;;
57605;SDS011;43430;48.204;11.556;2023-07-20T09:56:34;1999.90;;;999.90;;
57605;SDS011;43430;48.204;11.556;2023-07-20T09:59:00;1999.90;;;999.90;;
57605;SDS011;43430;48.204;11.556;2023-07-20T10:01:25;1999.90;;;999.90;;
57605;SDS011;43430;48.204;11.556;2023-07-20T10:03:54;1999.90;;;999.90;;
57605;SDS011;43430;48.204;11.556;2023-07-20T10:06:23;1999.90;;;999.90;;
57605;SDS011;43430;48.204;11.556;2023-07-20T10:08:52;1999.90;;;999.90;;
57605;SDS011;43430;48.204;11.556;2023-07-20T10:11:21;1999.90;;;999.90;;
57605;SDS011;43430;48.204;11.556;2023-07-20T10:13:51;1999.90;;;999.90;;
57605;SDS011;43430;48.204;11.556;2023-07-20T10:16:26;105.07;;;94.65;;
57605;SDS011;43430;48.204;11.556;2023-07-20T10:19:13;1999.90;;;999.90;;
57605;SDS011;43430;48.204;11.556;2023-07-20T10:21:50;1999.90;;;999.90;;
57605;SDS011;43430;48.204;11.556;2023-07-20T10:24:28;1999.90;;;999.90;;
57605;SDS011;43430;48.204;11.556;2023-07-20T10:26:57;1999.90;;;999.90;;
57605;SDS011;43430;48.204;11.556;2023-07-20T10:29:22;1999.90;;;999.90;;
57605;SDS011;43430;48.204;11.556;2023-07-20T10:31:49;1999.90;;;999.90;;
57605;SDS011;43430;48.204;11.556;2023-07-20T10:34:15;1999.90;;;999.90;;
57605;SDS011;43430;48.204;11.556;2023-07-20T10:36:44;1999.90;;;999.90;;
57605;SDS011;43430;48.204;11.556;2023-07-20T10:39:26;120.32;;;101.88;;
57605;SDS011;43430;48.204;11.556;2023-07-20T10:44:28;19.65;;;19.05;;
57605;SDS011;43430;48.204;11.556;2023-07-20T10:47:01;18.20;;;17.60;;
57605;SDS011;43430;48.204;11.556;2023-07-20T10:49:27;18.90;;;18.30;;
57605;SDS011;43430;48.204;11.556;2023-07-20T10:51:57;20.02;;;19.42;;
57605;SDS011;43430;48.204;11.556;2023-07-20T10:56:49;16.25;;;15.75;;
57605;SDS011;43430;48.204;11.556;2023-07-20T10:59:19;19.63;;;19.02;;
57605;SDS011;43430;48.204;11.556;2023-07-20T11:01:56;21.08;;;20.48;;
57605;SDS011;43430;48.204;11.556;2023-07-20T11:07:10;18.65;;;18.05;;
57605;SDS011;43430;48.204;11.556;2023-07-20T11:09:39;20.77;;;20.17;;
57605;SDS011;43430;48.204;11.556;2023-07-20T11:14:35;20.30;;;19.70;;
57605;SDS011;43430;48.204;11.556;2023-07-20T11:17:12;17.95;;;17.40;;
57605;SDS011;43430;48.204;11.556;2023-07-20T11:19:39;20.35;;;19.75;;
57605;SDS011;43430;48.204;11.556;2023-07-20T11:22:07;21.73;;;21.02;;
57605;SDS011;43430;48.204;11.556;2023-07-20T11:24:34;22.20;;;21.50;;
57605;SDS011;43430;48.204;11.556;2023-07-20T11:26:59;22.60;;;21.90;;
57605;SDS011;43430;48.204;11.556;2023-07-20T11:29:28;22.73;;;22.02;;
57605;SDS011;43430;48.204;11.556;2023-07-20T11:31:53;21.95;;;21.25;;
57605;SDS011;43430;48.204;11.556;2023-07-20T11:34:20;39.33;;;37.47;;
57605;SDS011;43430;48.204;11.556;2023-07-20T11:36:47;54.45;;;16.73;;
57605;SDS011;43430;48.204;11.556;2023-07-20T11:39:14;20.35;;;12.38;;
57605;SDS011;43430;48.204;11.556;2023-07-20T11:41:49;9.75;;;9.18;;
57605;SDS011;43430;48.204;11.556;2023-07-20T11:44:19;9.65;;;9.07;;
57605;SDS011;43430;48.204;11.556;2023-07-20T11:46:51;9.07;;;8.27;;
57605;SDS011;43430;48.204;11.556;2023-07-20T11:49:24;9.57;;;9.07;;
57605;SDS011;43430;48.204;11.556;2023-07-20T11:51:50;157.35;;;32.92;;
57605;SDS011;43430;48.204;11.556;2023-07-20T11:54:15;290.52;;;45.15;;
57605;SDS011;43430;48.204;11.556;2023-07-20T11:56:41;33.58;;;9.75;;
57605;SDS011;43430;48.204;11.556;2023-07-20T11:59:06;88.07;;;51.65;;
57605;SDS011;43430;48.204;11.556;2023-07-20T12:01:32;9.20;;;8.10;;
57605;SDS011;43430;48.204;11.556;2023-07-20T12:03:59;8.93;;;8.43;;
57605;SDS011;43430;48.204;11.556;2023-07-20T12:06:27;8.20;;;7.55;;
57605;SDS011;43430;48.204;11.556;2023-07-20T12:08:56;9.02;;;8.43;;
57605;SDS011;43430;48.204;11.556;2023-07-20T12:11:32;180.55;;;21.15;;
57605;SDS011;43430;48.204;11.556;2023-07-20T12:13:59;40.97;;;39.42;;
57605;SDS011;43430;48.204;11.556;2023-07-20T12:16:29;1999.90;;;999.90;;
57605;SDS011;43430;48.204;11.556;2023-07-20T12:19:05;1999.90;;;999.90;;
57605;SDS011;43430;48.204;11.556;2023-07-20T12:21:33;1999.90;;;999.90;;
57605;SDS011;43430;48.204;11.556;2023-07-20T12:24:01;1999.90;;;999.90;;
57605;SDS011;43430;48.204;11.556;2023-07-20T12:26:28;1999.90;;;999.90;;
57605;SDS011;43430;48.204;11.556;2023-07-20T12:28:55;1999.90;;;999.90;;
57605;SDS011;43430;48.204;11.556;2023-07-20T12:31:21;1999.90;;;999.90;;
57605;SDS011;43430;48.204;11.556;2023-07-20T12:33:48;11.27;;;10.98;;
57605;SDS011;43430;48.204;11.556;2023-07-20T12:36:14;1999.90;;;999.90;;
57605;SDS011;43430;48.204;11.556;2023-07-20T12:38:40;8.45;;;7.95;;
57605;SDS011;43430;48.204;11.556;2023-07-20T12:41:06;8.23;;;7.82;;
57605;SDS011;43430;48.204;11.556;2023-07-20T12:43:32;8.93;;;8.30;;
57605;SDS011;43430;48.204;11.556;2023-07-20T12:45:58;9.02;;;8.38;;
57605;SDS011;43430;48.204;11.556;2023-07-20T12:48:23;8.55;;;8.07;;
57605;SDS011;43430;48.204;11.556;2023-07-20T12:50:48;8.13;;;7.70;;
57605;SDS011;43430;48.204;11.556;2023-07-20T12:53:14;7.72;;;7.32;;
57605;SDS011;43430;48.204;11.556;2023-07-20T12:55:40;8.07;;;7.55;;
57605;SDS011;43430;48.204;11.556;2023-07-20T12:58:06;8.05;;;7.55;;
57605;SDS011;43430;48.204;11.556;2023-07-20T13:00:32;7.80;;;7.32;;
57605;SDS011;43430;48.204;11.556;2023-07-20T13:02:57;8.85;;;8.15;;
57605;SDS011;43430;48.204;11.556;2023-07-20T13:05:23;7.80;;;7.40;;
57605;SDS011;43430;48.204;11.556;2023-07-20T13:07:48;7.38;;;6.93;;
57605;SDS011;43430;48.204;11.556;2023-07-20T13:10:14;7.50;;;7.00;;
57605;SDS011;43430;48.204;11.556;2023-07-20T13:12:39;7.68;;;7.18;;
57605;SDS011;43430;48.204;11.556;2023-07-20T13:15:06;7.18;;;6.78;;
57605;SDS011;43430;48.204;11.556;2023-07-20T13:17:36;7.57;;;6.80;;
57605;SDS011;43430;48.204;11.556;2023-07-20T13:20:03;7.03;;;6.53;;
57605;SDS011;43430;48.204;11.556;2023-07-20T13:22:36;7.07;;;6.68;;
57605;SDS011;43430;48.204;11.556;2023-07-20T13:25:05;7.97;;;7.57;;
57605;SDS011;43430;48.204;11.556;2023-07-20T13:27:31;7.38;;;6.78;;
57605;SDS011;43430;48.204;11.556;2023-07-20T13:29:58;7.10;;;6.65;;
57605;SDS011;43430;48.204;11.556;2023-07-20T13:32:24;7.75;;;7.32;;
57605;SDS011;43430;48.204;11.556;2023-07-20T13:34:49;7.53;;;7.03;;
57605;SDS011;43430;48.204;11.556;2023-07-20T13:37:15;7.35;;;6.95;;
57605;SDS011;43430;48.204;11.556;2023-07-20T13:39:41;7.68;;;7.07;;
57605;SDS011;43430;48.204;11.556;2023-07-20T13:42:07;7.20;;;6.80;;
57605;SDS011;43430;48.204;11.556;2023-07-20T13:44:34;7.63;;;7.05;;
57605;SDS011;43430;48.204;11.556;2023-07-20T13:47:00;7.75;;;7.35;;
57605;SDS011;43430;48.204;11.556;2023-07-20T13:49:26;7.18;;;6.68;;
57605;SDS011;43430;48.204;11.556;2023-07-20T13:51:52;6.75;;;6.30;;
57605;SDS011;43430;48.204;11.556;2023-07-20T13:54:18;7.05;;;6.55;;
57605;SDS011;43430;48.204;11.556;2023-07-20T13:56:43;7.07;;;6.68;;
57605;SDS011;43430;48.204;11.556;2023-07-20T13:59:08;6.85;;;6.38;;
57605;SDS011;43430;48.204;11.556;2023-07-20T14:01:34;6.70;;;6.25;;
57605;SDS011;43430;48.204;11.556;2023-07-20T14:04:00;7.28;;;6.82;;
57605;SDS011;43430;48.204;11.556;2023-07-20T14:06:27;5.93;;;5.63;;
57605;SDS011;43430;48.204;11.556;2023-07-20T14:08:54;6.80;;;6.40;;
57605;SDS011;43430;48.204;11.556;2023-07-20T14:11:19;6.30;;;5.80;;
57605;SDS011;43430;48.204;11.556;2023-07-20T14:13:45;6.55;;;6.10;;
57605;SDS011;43430;48.204;11.556;2023-07-20T14:16:10;6.85;;;6.15;;
57605;SDS011;43430;48.204;11.556;2023-07-20T14:18:36;7.00;;;6.57;;
57605;SDS011;43430;48.204;11.556;2023-07-20T14:21:01;7.18;;;6.80;;
57605;SDS011;43430;48.204;11.556;2023-07-20T14:23:28;6.78;;;6.38;;